Time;durP1;ratioP1;P1;durP2;ratioP2;P2;SDS_P1;SDS_P2;PMS_P1;PMS_P2;Temp;Humidity;BMP_temperature;BMP_pressure;BME280_temperature;BME280_humidity;BME280_pressure;Samples;Min_cycle;Max_cycle;Signal;HPM_P1;HPM_P2
2022/10/10 00:01:05;;;;;;;6.28;3.25;;;8.10;84.50;;;;;;5071152;28;20401;-50
2022/10/10 00:03:31;;;;;;;9.55;3.05;;;8.10;84.30;;;;;;5072686;28;20100;-51
2022/10/10 00:05:57;;;;;;;7.40;3.53;;;8.60;84.30;;;;;;5072089;28;20061;-51
2022/10/10 00:08:22;;;;;;;9.05;3.40;;;8.40;85.30;;;;;;5071053;28;20111;-48
2022/10/10 00:10:48;;;;;;;6.05;3.25;;;8.50;84.90;;;;;;5071682;28;20035;-52
2022/10/10 00:13:14;;;;;;;7.68;3.53;;;8.20;84.30;;;;;;5069686;28;20212;-51
2022/10/10 00:15:40;;;;;;;7.00;3.20;;;8.20;84.30;;;;;;5071579;28;20081;-49
2022/10/10 00:18:06;;;;;;;6.18;3.60;;;8.50;83.00;;;;;;5070603;28;20084;-49
2022/10/10 00:20:31;;;;;;;8.15;3.83;;;8.20;83.40;;;;;;5072768;28;20044;-50
2022/10/10 00:22:57;;;;;;;10.77;3.58;;;8.20;82.50;;;;;;5070507;28;20039;-52
2022/10/10 00:25:23;;;;;;;6.47;3.25;;;8.30;82.50;;;;;;5071561;28;20058;-51
2022/10/10 00:27:48;;;;;;;7.75;3.90;;;9.20;82.60;;;;;;5072663;28;20040;-51
2022/10/10 00:30:17;;;;;;;8.18;3.95;;;9.40;84.80;;;;;;5070907;28;20275;-53
2022/10/10 00:32:43;;;;;;;7.20;3.35;;;8.20;84.80;;;;;;5070208;28;20039;-51
2022/10/10 00:35:09;;;;;;;8.27;3.55;;;8.20;85.80;;;;;;5070838;28;20051;-50
2022/10/10 00:37:34;;;;;;;6.75;3.75;;;8.20;87.30;;;;;;5071422;28;20199;-51
2022/10/10 00:40:00;;;;;;;7.93;3.63;;;9.00;88.70;;;;;;5069301;28;20165;-51
2022/10/10 00:42:26;;;;;;;9.68;3.33;;;8.20;89.40;;;;;;5070714;28;20040;-51
2022/10/10 00:45:19;;;;;;;7.53;3.53;;;9.40;90.70;;;;;;5071991;28;20043;-52
2022/10/10 00:47:46;;;;;;;9.30;3.72;;;8.10;90.10;;;;;;5071617;28;20596;-52
2022/10/10 00:50:12;;;;;;;15.95;5.07;;;10.00;90.60;;;;;;5070263;28;20235;-51
2022/10/10 00:52:38;;;;;;;6.10;3.72;;;7.90;90.20;;;;;;5070449;28;20444;-49
2022/10/10 00:55:04;;;;;;;8.07;3.90;;;8.20;90.30;;;;;;5071436;28;21811;-51
2022/10/10 00:57:30;;;;;;;7.50;3.45;;;8.40;90.20;;;;;;5071929;28;20489;-50
2022/10/10 00:59:57;;;;;;;11.20;3.50;;;9.10;90.60;;;;;;5072040;28;20135;-52
2022/10/10 01:02:23;;;;;;;8.48;4.00;;;8.40;89.80;;;;;;5071970;28;20135;-50
2022/10/10 01:04:48;;;;;;;6.70;3.58;;;8.20;90.70;;;;;;5070806;28;20093;-49
2022/10/10 01:07:25;;;;;;;6.78;3.97;;;8.00;91.30;;;;;;5071402;28;20044;-52
2022/10/10 01:09:55;;;;;;;9.70;4.10;;;10.10;92.40;;;;;;5071868;28;20076;-49
2022/10/10 01:12:39;;;;;;;6.38;3.63;;;8.10;91.20;;;;;;5070724;28;20044;-52
2022/10/10 01:15:11;;;;;;;6.55;3.97;;;8.80;93.00;;;;;;5067442;28;20056;-47
2022/10/10 01:18:03;;;;;;;6.28;4.13;;;7.90;92.60;;;;;;5068366;28;20405;-48
2022/10/10 01:20:52;;;;;;;6.07;3.67;;;7.90;92.80;;;;;;5069729;28;20051;-51
2022/10/10 01:23:26;;;;;;;6.82;4.00;;;9.40;94.10;;;;;;5068969;28;20130;-50
2022/10/10 01:26:04;;;;;;;9.13;4.15;;;7.80;93.20;;;;;;5071186;28;20362;-51
2022/10/10 01:28:40;;;;;;;7.75;4.32;;;7.80;94.20;;;;;;5070814;28;20513;-51
2022/10/10 01:31:09;;;;;;;8.85;4.32;;;7.60;93.20;;;;;;5070443;28;20047;-50
2022/10/10 01:33:50;;;;;;;6.43;4.22;;;7.80;93.90;;;;;;5068826;28;20451;-50
2022/10/10 01:36:35;;;;;;;7.75;4.57;;;7.50;94.20;;;;;;5068995;28;20523;-50
2022/10/10 01:39:16;;;;;;;8.38;4.20;;;9.70;95.60;;;;;;5056066;28;20047;-50
2022/10/10 01:41:51;;;;;;;8.38;4.20;;;8.70;95.80;;;;;;5068378;28;20059;-51
2022/10/10 01:44:17;;;;;;;7.25;4.50;;;8.90;95.60;;;;;;5069226;28;20040;-49
2022/10/10 01:46:43;;;;;;;9.02;4.30;;;8.40;95.10;;;;;;5069659;28;20043;-52
2022/10/10 01:49:08;;;;;;;9.18;4.65;;;9.40;95.50;;;;;;5069567;28;20036;-48
2022/10/10 01:51:52;;;;;;;10.77;4.38;;;8.10;95.20;;;;;;5070294;28;20840;-48
2022/10/10 01:54:47;;;;;;;7.20;4.00;;;7.60;94.90;;;;;;5069369;28;20096;-52
2022/10/10 01:57:20;;;;;;;10.57;4.78;;;7.50;95.60;;;;;;5071332;28;20048;-48
2022/10/10 02:00:11;;;;;;;8.48;4.70;;;7.40;95.90;;;;;;5069374;28;20514;-50
2022/10/10 02:02:51;;;;;;;8.13;5.10;;;7.60;96.00;;;;;;5069658;28;21084;-52
2022/10/10 02:05:38;;;;;;;6.93;4.70;;;7.50;96.70;;;;;;5070172;28;20044;-52
2022/10/10 02:08:33;;;;;;;7.97;4.47;;;7.30;99.70;;;;;;5068836;28;20161;-49
2022/10/10 02:11:02;;;;;;;8.20;4.55;;;9.00;97.70;;;;;;5068609;28;20075;-50
2022/10/10 02:13:35;;;;;;;10.23;4.70;;;7.60;98.30;;;;;;5069797;28;20036;-49
2022/10/10 02:16:05;;;;;;;9.05;5.05;;;7.40;98.70;;;;;;5070439;28;20043;-53
2022/10/10 02:18:35;;;;;;;8.60;5.00;;;8.10;98.80;;;;;;5070872;28;20090;-48
2022/10/10 02:21:03;;;;;;;7.80;4.22;;;7.90;98.50;;;;;;5068430;28;20048;-50
2022/10/10 02:23:30;;;;;;;10.68;4.78;;;7.30;98.90;;;;;;5068033;28;20046;-50
2022/10/10 02:25:56;;;;;;;13.98;6.18;;;8.50;98.90;;;;;;5068585;28;20309;-50
2022/10/10 02:28:42;;;;;;;9.68;5.03;;;9.40;98.50;;;;;;5071034;28;21091;-51
2022/10/10 02:31:13;;;;;;;8.13;4.80;;;7.50;98.40;;;;;;5070257;28;20041;-52
2022/10/10 02:33:52;;;;;;;8.32;5.20;;;7.90;98.60;;;;;;5068212;28;20044;-52
2022/10/10 02:36:19;;;;;;;9.48;4.55;;;7.50;98.90;;;;;;5070460;28;20495;-52
2022/10/10 02:38:46;;;;;;;10.40;5.72;;;7.60;98.90;;;;;;5066701;28;20115;-49
2022/10/10 02:41:16;;;;;;;18.67;5.43;;;7.30;98.50;;;;;;5067446;28;20055;-53
2022/10/10 02:43:42;;;;;;;7.53;5.38;;;7.10;99.10;;;;;;5068972;28;20044;-51
2022/10/10 02:46:12;;;;;;;8.20;4.70;;;7.40;99.40;;;;;;5072503;28;20036;-50
2022/10/10 02:48:37;;;;;;;11.15;5.53;;;7.20;99.10;;;;;;5072576;28;20480;-52
2022/10/10 02:51:04;;;;;;;9.43;4.85;;;8.10;99.40;;;;;;5074017;28;20123;-52
2022/10/10 02:53:29;;;;;;;10.63;5.57;;;7.20;99.60;;;;;;5073116;28;20124;-52
2022/10/10 02:55:55;;;;;;;8.65;5.22;;;7.10;99.20;;;;;;5072497;28;20100;-51
2022/10/10 02:58:21;;;;;;;9.10;4.95;;;7.90;99.60;;;;;;5072687;28;20417;-52
2022/10/10 03:00:47;;;;;;;11.18;5.30;;;8.00;99.80;;;;;;5072250;28;20132;-51
2022/10/10 03:03:12;;;;;;;9.05;4.97;;;7.30;99.70;;;;;;5071457;28;20048;-51
2022/10/10 03:05:38;;;;;;;7.55;4.65;;;7.20;99.90;;;;;;5072854;28;20044;-51
2022/10/10 03:08:04;;;;;;;9.45;5.15;;;7.40;99.90;;;;;;5072942;28;20085;-53
2022/10/10 03:10:29;;;;;;;13.02;5.13;;;7.30;99.90;;;;;;5074382;28;20591;-52
2022/10/10 03:12:55;;;;;;;11.07;5.50;;;9.10;99.90;;;;;;5073204;28;20276;-51
2022/10/10 03:15:21;;;;;;;9.15;5.00;;;7.30;99.90;;;;;;5072451;28;20168;-52
2022/10/10 03:17:46;;;;;;;11.65;5.50;;;7.50;99.90;;;;;;5071506;28;20050;-54
2022/10/10 03:20:12;;;;;;;10.07;4.72;;;7.90;99.90;;;;;;5073439;28;20252;-51
2022/10/10 03:22:38;;;;;;;10.65;5.10;;;8.20;99.90;;;;;;5072605;28;20305;-50
2022/10/10 03:25:04;;;;;;;8.50;5.45;;;7.50;99.90;;;;;;5069747;28;20086;-50
2022/10/10 03:27:30;;;;;;;10.25;5.25;;;7.20;99.90;;;;;;5074184;28;20039;-52
2022/10/10 03:29:56;;;;;;;8.45;5.57;;;7.20;99.90;;;;;;5072774;28;20407;-52
2022/10/10 03:32:21;;;;;;;10.48;5.32;;;7.60;99.90;;;;;;5071937;28;20047;-49
2022/10/10 03:34:47;;;;;;;9.20;5.57;;;7.20;99.90;;;;;;5073118;28;20040;-49
2022/10/10 03:37:13;;;;;;;8.90;5.78;;;7.90;99.90;;;;;;5072160;28;20285;-51
2022/10/10 03:39:39;;;;;;;9.63;5.80;;;7.40;99.90;;;;;;5072326;28;20070;-52
2022/10/10 03:42:04;;;;;;;8.60;5.15;;;7.50;99.90;;;;;;5071774;28;20044;-49
2022/10/10 03:44:30;;;;;;;8.95;5.72;;;7.60;99.90;;;;;;5070084;28;20051;-50
2022/10/10 03:46:56;;;;;;;9.13;5.65;;;8.20;99.90;;;;;;5071588;28;20047;-50
2022/10/10 03:49:21;;;;;;;11.05;5.93;;;6.90;99.90;;;;;;5073025;28;20195;-51
2022/10/10 03:51:47;;;;;;;9.77;5.63;;;7.00;99.90;;;;;;5072039;28;20059;-53
2022/10/10 03:54:13;;;;;;;11.65;7.00;;;6.80;99.90;;;;;;5071671;28;20520;-49
2022/10/10 03:56:38;;;;;;;9.50;6.00;;;6.90;99.90;;;;;;5071376;28;20060;-52
2022/10/10 03:59:05;;;;;;;10.35;6.50;;;6.80;99.90;;;;;;5073837;28;20040;-50
2022/10/10 04:01:31;;;;;;;8.60;5.85;;;6.80;99.90;;;;;;5072166;28;20691;-52
2022/10/10 04:03:57;;;;;;;10.43;6.55;;;7.20;99.90;;;;;;5069686;28;20508;-51
2022/10/10 04:06:23;;;;;;;11.65;6.22;;;6.70;99.90;;;;;;5071829;28;20039;-52
2022/10/10 04:08:49;;;;;;;12.68;6.80;;;7.70;99.90;;;;;;5071771;28;20098;-52
2022/10/10 04:11:15;;;;;;;11.65;6.88;;;6.50;99.90;;;;;;5070196;28;20036;-52
2022/10/10 04:13:40;;;;;;;13.70;6.38;;;8.40;99.90;;;;;;5069073;28;20147;-51
2022/10/10 04:16:06;;;;;;;10.00;6.57;;;7.80;99.90;;;;;;5071165;28;20037;-53
2022/10/10 04:18:32;;;;;;;12.60;6.80;;;6.70;99.90;;;;;;5072739;28;20036;-50
2022/10/10 04:21:02;;;;;;;12.27;6.35;;;6.70;99.90;;;;;;5069630;28;20059;-49
2022/10/10 04:23:28;;;;;;;8.55;6.07;;;6.70;99.90;;;;;;5070599;28;20052;-52
2022/10/10 04:25:53;;;;;;;13.10;7.03;;;6.50;99.90;;;;;;5072132;28;20040;-52
2022/10/10 04:28:19;;;;;;;13.88;7.32;;;6.60;99.90;;;;;;5072724;28;20048;-51
2022/10/10 04:30:45;;;;;;;11.68;6.68;;;7.50;99.90;;;;;;5070044;28;20089;-52
2022/10/10 04:33:11;;;;;;;12.63;6.40;;;6.60;99.90;;;;;;5069820;28;20123;-53
2022/10/10 04:35:37;;;;;;;9.85;6.40;;;7.80;99.90;;;;;;5070372;28;20043;-50
2022/10/10 04:38:04;;;;;;;11.23;6.53;;;6.90;99.90;;;;;;5071812;28;20535;-53
2022/10/10 04:40:30;;;;;;;11.60;7.05;;;8.00;99.90;;;;;;5072126;28;20040;-53
2022/10/10 04:42:56;;;;;;;10.90;6.35;;;7.10;99.90;;;;;;5071902;28;20614;-53
2022/10/10 04:45:25;;;;;;;12.80;7.13;;;8.50;99.90;;;;;;5071153;28;20040;-52
2022/10/10 04:47:52;;;;;;;13.30;6.78;;;6.50;99.90;;;;;;5071808;28;20492;-53
2022/10/10 04:50:18;;;;;;;13.93;7.50;;;6.50;99.90;;;;;;5071756;28;20625;-53
2022/10/10 04:52:43;;;;;;;10.75;6.78;;;7.30;99.90;;;;;;5072065;28;20515;-52
2022/10/10 04:55:09;;;;;;;9.38;6.45;;;6.40;99.90;;;;;;5069381;28;20041;-54
2022/10/10 04:57:35;;;;;;;10.32;6.30;;;8.00;99.90;;;;;;5072477;28;20044;-53
2022/10/10 05:00:03;;;;;;;15.43;7.55;;;6.50;99.90;;;;;;5071847;28;20096;-51
2022/10/10 05:02:28;;;;;;;9.77;6.80;;;6.40;99.90;;;;;;5070147;28;20522;-51
2022/10/10 05:04:54;;;;;;;9.80;6.35;;;6.50;99.90;;;;;;5070186;28;20036;-53
2022/10/10 05:07:20;;;;;;;9.30;6.30;;;6.40;99.90;;;;;;5069271;28;20052;-52
2022/10/10 05:09:46;;;;;;;12.60;7.30;;;7.40;99.90;;;;;;5068984;28;20063;-52
2022/10/10 05:12:11;;;;;;;10.40;7.47;;;8.20;99.90;;;;;;5067189;28;20040;-49
2022/10/10 05:14:37;;;;;;;11.68;7.43;;;6.30;99.90;;;;;;5070147;28;20040;-52
2022/10/10 05:17:03;;;;;;;13.07;7.68;;;6.60;99.90;;;;;;5069474;28;20075;-50
2022/10/10 05:19:28;;;;;;;13.88;7.82;;;7.00;99.90;;;;;;5068554;28;20044;-49
2022/10/10 05:21:54;;;;;;;11.70;7.03;;;8.70;99.90;;;;;;5068606;28;20040;-50
2022/10/10 05:24:20;;;;;;;11.93;7.75;;;6.40;99.90;;;;;;5069691;28;20047;-48
2022/10/10 05:26:45;;;;;;;15.73;7.00;;;6.70;99.90;;;;;;5070453;28;20524;-50
2022/10/10 05:29:11;;;;;;;11.07;6.55;;;6.40;99.90;;;;;;5069352;28;20052;-49
2022/10/10 05:31:37;;;;;;;12.18;6.68;;;6.40;99.90;;;;;;5070999;28;20124;-51
2022/10/10 05:34:03;;;;;;;11.68;7.13;;;7.30;99.90;;;;;;5068610;28;20516;-51
2022/10/10 05:36:28;;;;;;;19.00;7.68;;;6.50;99.90;;;;;;5068541;28;20130;-49
2022/10/10 05:38:55;;;;;;;14.15;7.20;;;7.60;99.90;;;;;;5070799;28;20036;-51
2022/10/10 05:41:20;;;;;;;23.50;7.40;;;6.60;99.90;;;;;;5067759;28;20043;-50
2022/10/10 05:43:46;;;;;;;12.45;7.22;;;7.20;99.90;;;;;;5070110;28;20048;-49
2022/10/10 05:46:12;;;;;;;14.98;7.20;;;6.30;99.90;;;;;;5068561;28;20098;-49
2022/10/10 05:48:38;;;;;;;11.30;7.10;;;6.10;99.90;;;;;;5069215;28;20059;-47
2022/10/10 05:51:06;;;;;;;10.32;7.03;;;8.10;99.90;;;;;;5068344;28;20142;-47
2022/10/10 05:53:31;;;;;;;12.10;6.68;;;8.30;99.90;;;;;;5070203;28;20044;-47
2022/10/10 05:56:00;;;;;;;11.60;7.63;;;6.60;99.90;;;;;;5069488;28;20055;-47
2022/10/10 05:58:26;;;;;;;13.00;6.93;;;6.40;99.90;;;;;;5069374;28;20362;-50
2022/10/10 06:00:52;;;;;;;13.15;7.38;;;6.80;99.90;;;;;;5070575;28;20515;-49
2022/10/10 06:03:17;;;;;;;10.20;6.57;;;7.10;99.90;;;;;;5069811;28;20408;-52
2022/10/10 06:05:45;;;;;;;11.88;7.25;;;7.20;99.90;;;;;;5069326;28;20059;-52
2022/10/10 06:08:11;;;;;;;17.50;7.40;;;6.50;99.90;;;;;;5070652;28;20044;-48
2022/10/10 06:10:39;;;;;;;13.35;6.97;;;6.60;99.90;;;;;;5068796;28;20047;-49
2022/10/10 06:13:05;;;;;;;11.50;6.78;;;7.30;99.90;;;;;;5069047;28;20040;-48
2022/10/10 06:15:31;;;;;;;10.73;7.07;;;8.00;99.90;;;;;;5068560;28;20104;-47
2022/10/10 06:17:57;;;;;;;12.45;6.82;;;7.30;99.90;;;;;;5069136;28;20044;-48
2022/10/10 06:20:22;;;;;;;13.35;7.07;;;7.50;99.90;;;;;;5070980;28;20044;-51
2022/10/10 06:22:48;;;;;;;10.13;7.20;;;7.90;99.90;;;;;;5073512;28;20552;-48
2022/10/10 06:25:14;;;;;;;11.65;7.45;;;8.70;99.90;;;;;;5072662;28;20043;-57
2022/10/10 06:27:39;;;;;;;10.15;6.90;;;6.50;99.90;;;;;;5070855;28;20036;-50
2022/10/10 06:30:06;;;;;;;11.50;7.20;;;6.80;99.90;;;;;;5070981;28;20058;-51
2022/10/10 06:32:31;;;;;;;11.13;6.80;;;7.80;99.90;;;;;;5072435;28;20125;-52
2022/10/10 06:34:57;;;;;;;15.25;7.63;;;6.80;99.90;;;;;;5074975;28;20493;-49
2022/10/10 06:37:23;;;;;;;11.32;6.95;;;7.20;99.90;;;;;;5070905;28;20039;-51
2022/10/10 06:39:49;;;;;;;12.38;7.20;;;7.00;99.90;;;;;;5073317;28;20063;-52
2022/10/10 06:42:15;;;;;;;12.55;7.53;;;7.20;99.90;;;;;;5074144;28;20427;-52
2022/10/10 06:44:41;;;;;;;11.48;7.43;;;8.00;99.90;;;;;;5072899;28;20489;-52
2022/10/10 06:47:07;;;;;;;12.38;7.85;;;7.30;99.90;;;;;;5072560;28;20925;-49
2022/10/10 06:49:32;;;;;;;11.25;7.13;;;8.60;99.90;;;;;;5073160;28;20032;-51
2022/10/10 06:51:58;;;;;;;8.77;6.43;;;8.10;99.90;;;;;;5073657;28;20098;-50
2022/10/10 06:54:24;;;;;;;13.52;6.53;;;8.90;99.90;;;;;;5072152;28;20051;-51
2022/10/10 06:56:49;;;;;;;9.20;6.72;;;8.80;99.90;;;;;;5072598;28;20059;-51
2022/10/10 06:59:15;;;;;;;14.02;6.65;;;8.50;99.90;;;;;;5073518;28;20052;-49
2022/10/10 07:01:41;;;;;;;11.48;5.93;;;9.40;99.90;;;;;;5071915;28;20051;-52
2022/10/10 07:04:08;;;;;;;10.30;5.65;;;9.90;95.20;;;;;;5072475;28;20044;-51
2022/10/10 07:06:35;;;;;;;9.30;5.70;;;10.00;88.20;;;;;;5072074;28;20111;-48
2022/10/10 07:09:01;;;;;;;11.13;6.45;;;10.30;78.80;;;;;;5071793;28;20051;-53
2022/10/10 07:11:27;;;;;;;12.95;5.97;;;10.20;71.90;;;;;;5071637;28;20627;-50
2022/10/10 07:13:53;;;;;;;11.38;6.20;;;10.00;72.40;;;;;;5072174;28;20547;-52
2022/10/10 07:16:18;;;;;;;11.98;5.95;;;9.80;77.70;;;;;;5073618;28;20127;-51
2022/10/10 07:18:44;;;;;;;9.60;5.82;;;9.80;79.80;;;;;;5071059;28;20323;-48
2022/10/10 07:21:10;;;;;;;9.48;6.20;;;9.90;78.10;;;;;;5070561;28;20400;-50
2022/10/10 07:23:36;;;;;;;12.27;6.05;;;11.60;71.80;;;;;;5073327;28;20512;-49
2022/10/10 07:26:12;;;;;;;9.60;6.00;;;11.80;67.10;;;;;;5073684;28;20035;-49
2022/10/10 07:28:38;;;;;;;11.48;5.35;;;12.10;64.70;;;;;;5074206;28;20649;-51
2022/10/10 07:31:07;;;;;;;10.00;5.63;;;10.60;68.30;;;;;;5071929;28;20063;-53
2022/10/10 07:33:36;;;;;;;10.43;6.05;;;9.70;72.20;;;;;;5074420;28;20054;-49
2022/10/10 07:36:03;;;;;;;10.88;6.75;;;10.90;81.20;;;;;;5073395;28;20122;-49
2022/10/10 07:38:29;;;;;;;10.02;6.50;;;9.70;84.00;;;;;;5071682;28;20051;-48
2022/10/10 07:40:54;;;;;;;9.82;5.80;;;9.50;90.30;;;;;;5070422;28;20413;-52
2022/10/10 07:43:21;;;;;;;10.50;6.32;;;10.70;91.70;;;;;;5072007;28;20036;-50
2022/10/10 07:45:47;;;;;;;11.70;7.20;;;11.70;92.20;;;;;;5071779;28;20048;-47
2022/10/10 07:48:13;;;;;;;12.95;6.60;;;10.50;91.70;;;;;;5070781;28;20036;-48
2022/10/10 07:50:43;;;;;;;8.65;5.95;;;10.60;92.10;;;;;;5072300;28;20099;-49
2022/10/10 07:53:09;;;;;;;13.30;6.45;;;10.00;91.70;;;;;;5072245;28;20039;-48
2022/10/10 07:55:39;;;;;;;11.40;6.20;;;10.00;90.50;;;;;;5072491;28;20040;-52
2022/10/10 07:58:05;;;;;;;9.00;6.13;;;10.30;91.40;;;;;;5073349;28;20048;-47
2022/10/10 08:00:32;;;;;;;12.98;6.18;;;8.40;83.30;;;;;;5072912;28;20105;-50
2022/10/10 08:02:57;;;;;;;12.00;6.05;;;10.70;75.50;;;;;;5071965;28;20058;-50
2022/10/10 08:05:23;;;;;;;11.38;6.50;;;10.80;72.90;;;;;;5071231;28;20048;-48
2022/10/10 08:07:49;;;;;;;10.95;6.38;;;10.80;75.00;;;;;;5072489;28;20135;-47
2022/10/10 08:10:15;;;;;;;14.68;6.15;;;10.70;79.20;;;;;;5071750;28;20039;-50
2022/10/10 08:12:41;;;;;;;10.00;6.53;;;10.70;78.90;;;;;;5072237;28;20055;-50
2022/10/10 08:15:07;;;;;;;10.45;6.45;;;11.00;81.60;;;;;;5071945;28;20532;-49
2022/10/10 08:17:33;;;;;;;15.05;6.75;;;10.90;79.30;;;;;;5072326;28;20048;-51
2022/10/10 08:19:59;;;;;;;12.57;6.03;;;11.30;77.80;;;;;;5071180;28;20044;-52
2022/10/10 08:22:24;;;;;;;14.48;6.80;;;11.40;65.40;;;;;;5070497;28;20042;-48
2022/10/10 08:24:50;;;;;;;8.68;5.90;;;13.30;63.40;;;;;;5070720;28;20036;-48
2022/10/10 08:27:17;;;;;;;8.68;6.07;;;11.60;60.80;;;;;;5072623;28;20134;-47
2022/10/10 08:29:43;;;;;;;11.65;6.50;;;11.80;59.60;;;;;;5072238;28;20046;-53
2022/10/10 08:32:09;;;;;;;10.65;6.40;;;11.60;59.90;;;;;;5071559;28;20047;-47
2022/10/10 08:34:35;;;;;;;12.07;6.88;;;11.50;61.20;;;;;;5071388;28;20044;-52
2022/10/10 08:37:00;;;;;;;10.38;6.70;;;11.50;65.30;;;;;;5072921;28;20408;-50
2022/10/10 08:39:26;;;;;;;15.63;6.25;;;12.30;66.70;;;;;;5071732;28;20072;-51
2022/10/10 08:41:56;;;;;;;13.68;6.70;;;11.80;69.50;;;;;;5071269;28;20039;-53
2022/10/10 08:44:34;;;;;;;15.07;6.53;;;11.90;72.00;;;;;;5071089;28;20035;-51
2022/10/10 08:47:04;;;;;;;10.13;6.45;;;12.00;65.50;;;;;;5071420;28;20492;-52
2022/10/10 08:49:56;;;;;;;10.48;6.93;;;12.20;65.40;;;;;;5072194;28;20039;-51
2022/10/10 08:52:39;;;;;;;11.60;6.55;;;12.40;61.00;;;;;;5069125;28;20044;-47
2022/10/10 08:55:22;;;;;;;10.65;6.55;;;12.40;52.00;;;;;;5071183;28;20047;-47
2022/10/10 08:57:57;;;;;;;12.63;6.35;;;12.60;47.50;;;;;;5071413;28;20515;-48
2022/10/10 09:00:25;;;;;;;14.73;6.63;;;13.00;56.70;;;;;;5071875;28;20119;-50
2022/10/10 09:02:57;;;;;;;12.65;6.78;;;12.50;54.90;;;;;;5068387;28;20048;-47
2022/10/10 09:05:48;;;;;;;11.52;6.93;;;12.60;51.80;;;;;;5069872;28;20086;-48
2022/10/10 09:08:29;;;;;;;11.77;6.93;;;14.00;54.40;;;;;;5069456;28;20100;-48
2022/10/10 09:11:03;;;;;;;15.07;6.82;;;12.60;51.60;;;;;;5070856;28;20040;-51
2022/10/10 09:13:36;;;;;;;10.63;6.72;;;12.70;51.10;;;;;;5067821;28;20050;-51
2022/10/10 09:16:23;;;;;;;13.48;7.47;;;12.60;52.30;;;;;;5069845;28;20079;-49
2022/10/10 09:19:05;;;;;;;12.13;6.55;;;12.40;52.80;;;;;;5069697;28;20147;-51
2022/10/10 09:21:35;;;;;;;12.35;6.55;;;12.40;62.60;;;;;;5069237;28;20413;-49
2022/10/10 09:24:10;;;;;;;14.70;7.45;;;12.70;69.80;;;;;;5070767;28;20040;-48
2022/10/10 09:26:46;;;;;;;11.13;7.03;;;12.50;71.20;;;;;;5070705;28;20599;-50
2022/10/10 09:29:14;;;;;;;13.07;6.70;;;12.80;81.00;;;;;;5070678;28;20770;-46
2022/10/10 09:31:54;;;;;;;12.13;6.88;;;11.00;64.90;;;;;;5069933;28;20036;-47
2022/10/10 09:34:39;;;;;;;11.48;6.25;;;12.60;63.70;;;;;;5069080;28;20044;-53
2022/10/10 09:37:13;;;;;;;17.63;6.90;;;12.90;66.00;;;;;;5069848;28;20051;-47
2022/10/10 09:39:55;;;;;;;9.95;6.22;;;12.90;66.50;;;;;;5067790;28;20044;-51
2022/10/10 09:42:36;;;;;;;15.75;7.22;;;13.10;63.30;;;;;;5069614;28;20682;-47
2022/10/10 09:45:11;;;;;;;10.57;6.95;;;13.10;65.30;;;;;;5067916;28;20141;-47
2022/10/10 09:47:37;;;;;;;13.50;6.85;;;13.20;66.90;;;;;;5069560;28;20083;-47
2022/10/10 09:50:03;;;;;;;13.45;6.60;;;13.20;65.60;;;;;;5069035;28;20131;-46
2022/10/10 09:52:30;;;;;;;10.85;7.25;;;13.20;61.50;;;;;;5071017;28;20040;-48
2022/10/10 09:55:13;;;;;;;12.35;7.15;;;13.30;57.60;;;;;;5069694;28;20081;-47
2022/10/10 09:57:41;;;;;;;12.93;6.75;;;14.50;58.20;;;;;;5070891;28;20082;-52
2022/10/10 10:00:19;;;;;;;15.65;6.60;;;13.50;56.50;;;;;;5071196;28;20113;-47
2022/10/10 10:03:01;;;;;;;12.80;6.85;;;14.80;50.80;;;;;;5070233;28;20416;-50
2022/10/10 10:05:28;;;;;;;10.30;6.13;;;13.50;51.60;;;;;;5068959;28;20051;-51
2022/10/10 10:07:54;;;;;;;9.13;6.45;;;13.60;53.60;;;;;;5069884;28;20075;-52
2022/10/10 10:10:23;;;;;;;13.57;6.43;;;13.70;46.00;;;;;;5069342;28;20115;-50
2022/10/10 10:12:49;;;;;;;16.38;7.00;;;13.70;45.10;;;;;;5069573;28;20047;-51
2022/10/10 10:15:20;;;;;;;12.30;6.80;;;13.90;48.30;;;;;;5071007;28;20048;-52
2022/10/10 10:18:15;;;;;;;11.25;6.32;;;13.70;38.80;;;;;;5071485;28;20040;-50
2022/10/10 10:20:43;;;;;;;10.82;6.80;;;13.70;43.60;;;;;;5069220;28;20532;-52
2022/10/10 10:23:36;;;;;;;12.07;6.40;;;14.10;47.50;;;;;;5069676;28;20044;-47
2022/10/10 10:26:15;;;;;;;12.70;6.85;;;13.90;38.30;;;;;;5066839;28;20044;-46
2022/10/10 10:28:42;;;;;;;11.50;6.53;;;14.20;40.20;;;;;;5068336;28;20059;-49
2022/10/10 10:31:26;;;;;;;10.32;5.78;;;16.00;43.80;;;;;;5067420;28;20036;-47
2022/10/10 10:34:03;;;;;;;10.35;6.60;;;14.60;34.90;;;;;;5067463;28;20058;-47
2022/10/10 10:36:47;;;;;;;9.48;6.10;;;14.90;26.60;;;;;;5069045;28;20626;-47
2022/10/10 10:39:38;;;;;;;12.40;6.65;;;14.90;20.80;;;;;;5068590;28;20036;-51
2022/10/10 10:42:17;;;;;;;11.25;6.85;;;15.00;19.70;;;;;;5068252;28;20051;-50
2022/10/10 10:44:47;;;;;;;8.95;6.13;;;14.90;30.50;;;;;;5069409;28;20492;-48
2022/10/10 10:47:37;;;;;;;12.13;6.55;;;14.80;31.70;;;;;;5069088;28;20139;-51
2022/10/10 10:50:44;;;;;;;13.93;6.45;;;14.90;32.00;;;;;;5068753;28;20055;-47
2022/10/10 10:53:25;;;;;;;16.38;7.28;;;14.70;29.10;;;;;;5068722;28;20465;-48
2022/10/10 10:56:14;;;;;;;12.98;7.03;;;14.50;33.70;;;;;;5068622;28;20048;-52
2022/10/10 10:59:04;;;;;;;15.30;6.72;;;14.70;31.40;;;;;;5069465;28;20068;-49
2022/10/10 11:02:03;;;;;;;14.10;7.22;;;14.50;33.60;;;;;;5068728;28;20056;-51
2022/10/10 11:05:06;;;;;;;16.52;6.55;;;14.40;41.20;;;;;;5068448;28;20044;-48
2022/10/10 11:07:44;;;;;;;13.55;7.07;;;14.10;44.00;;;;;;5071482;28;20507;-50
2022/10/10 11:11:03;;;;;;;15.40;7.57;;;14.10;57.10;;;;;;5072926;28;20090;-47
2022/10/10 11:13:31;;;;;;;14.05;8.27;;;13.90;68.80;;;;;;4992160;28;20565;-51
2022/10/10 11:16:15;;;;;;;13.88;6.97;;;14.10;75.50;;;;;;5067725;28;20070;-48
2022/10/10 11:19:13;;;;;;;15.30;7.60;;;13.90;83.90;;;;;;5072746;28;20033;-49
2022/10/10 11:22:10;;;;;;;15.32;8.65;;;13.90;90.10;;;;;;5072253;28;20465;-52
2022/10/10 11:24:50;;;;;;;15.02;7.75;;;13.70;92.10;;;;;;5069692;28;20059;-52
2022/10/10 11:27:49;;;;;;;14.73;7.55;;;13.60;95.00;;;;;;5072560;28;20111;-50
2022/10/10 11:30:19;;;;;;;12.68;7.63;;;13.50;95.50;;;;;;5074595;28;20048;-50
2022/10/10 11:33:05;;;;;;;11.00;7.72;;;13.50;96.20;;;;;;5073587;28;20052;-49
2022/10/10 11:35:46;;;;;;;16.52;7.82;;;13.30;96.50;;;;;;5073842;28;20809;-46
2022/10/10 11:38:37;;;;;;;13.00;8.55;;;13.50;97.00;;;;;;5071559;28;20070;-47
2022/10/10 11:41:14;;;;;;;15.68;8.38;;;13.30;97.50;;;;;;5070987;28;20131;-52
2022/10/10 11:43:56;;;;;;;15.40;8.23;;;13.50;97.60;;;;;;5071210;28;20520;-51
2022/10/10 11:46:40;;;;;;;;;;;13.50;99.20;;;;;;5069611;28;20055;-47
2022/10/10 11:49:12;;;;;;;15.30;8.27;;;13.40;99.20;;;;;;5069785;28;20056;-50
2022/10/10 11:51:44;;;;;;;17.52;8.77;;;15.30;99.70;;;;;;5071770;28;20062;-47
2022/10/10 11:54:38;;;;;;;12.45;7.80;;;13.30;98.70;;;;;;5071024;28;20048;-46
2022/10/10 11:57:11;;;;;;;13.70;8.02;;;13.40;99.90;;;;;;5066780;28;20122;-46
2022/10/10 11:59:48;;;;;;;14.00;8.02;;;13.30;99.90;;;;;;5072520;28;20508;-52
2022/10/10 12:02:32;;;;;;;14.18;8.70;;;13.50;99.90;;;;;;5071422;28;20578;-52
2022/10/10 12:04:58;;;;;;;15.10;8.55;;;13.40;99.90;;;;;;5069717;28;20040;-51
2022/10/10 12:07:30;;;;;;;19.23;9.23;;;13.50;99.90;;;;;;5071229;28;20515;-51
2022/10/10 12:10:05;;;;;;;14.55;7.85;;;13.70;99.90;;;;;;5070875;28;20036;-48
2022/10/10 12:12:43;;;;;;;13.55;9.13;;;13.70;99.90;;;;;;5069583;28;20034;-49
2022/10/10 12:15:09;;;;;;;15.50;9.43;;;13.60;99.90;;;;;;5071202;28;20113;-50
2022/10/10 12:17:43;;;;;;;14.80;9.65;;;14.00;99.90;;;;;;5066410;28;20079;-51
2022/10/10 12:20:24;;;;;;;12.40;8.40;;;13.40;99.90;;;;;;5068912;28;20050;-48
2022/10/10 12:23:13;;;;;;;14.93;8.60;;;13.60;99.90;;;;;;5070176;28;20040;-51
2022/10/10 12:25:44;;;;;;;17.20;9.75;;;13.70;99.90;;;;;;5068252;28;20050;-52
2022/10/10 12:28:13;;;;;;;20.75;10.27;;;13.60;99.90;;;;;;5070761;28;20499;-47
2022/10/10 12:30:51;;;;;;;15.45;9.65;;;13.40;99.90;;;;;;5073390;28;20036;-46
2022/10/10 12:33:32;;;;;;;17.08;9.70;;;13.50;99.90;;;;;;5071496;28;20052;-47
2022/10/10 12:36:17;;;;;;;17.00;10.45;;;13.40;99.90;;;;;;5071389;28;20047;-50
2022/10/10 12:39:08;;;;;;;14.18;10.40;;;13.40;99.90;;;;;;5071595;28;20110;-49
2022/10/10 12:41:53;;;;;;;21.05;10.38;;;13.40;99.90;;;;;;5055065;28;20554;-51
2022/10/10 12:44:39;;;;;;;15.70;10.52;;;14.10;99.90;;;;;;5069864;28;20036;-49
2022/10/10 12:47:14;;;;;;;20.50;10.95;;;13.10;99.90;;;;;;5069531;28;20072;-54
2022/10/10 12:49:58;;;;;;;18.40;12.10;;;13.20;99.90;;;;;;5072652;28;20089;-49
2022/10/10 12:52:35;;;;;;;20.10;11.48;;;13.10;99.90;;;;;;5066794;28;20039;-50
2022/10/10 12:55:47;;;;;;;17.58;11.02;;;13.20;99.90;;;;;;5071311;28;20040;-53
2022/10/10 12:58:25;;;;;;;19.83;11.43;;;13.00;99.90;;;;;;5060952;28;20046;-49
2022/10/10 13:00:52;;;;;;;23.20;14.00;;;13.10;99.90;;;;;;5071235;28;20587;-49
2022/10/10 13:03:24;;;;;;;18.58;12.95;;;12.80;99.90;;;;;;5069520;28;20048;-49
2022/10/10 13:05:51;;;;;;;21.00;13.07;;;12.80;99.90;;;;;;5068398;28;20318;-50
2022/10/10 13:08:22;;;;;;;21.40;14.15;;;12.90;99.90;;;;;;5070195;28;20047;-49